ADDS METAR Data INFO
IDs: Format: Raw Decoded Include TAF

Data at: 2015 UTC 18 Jul 2018

KFNL 181956Z AUTO 17007KT 10SM CLR 32/12 A3011 RMK AO2 SLP127 T03220117
KFNL 181907Z AUTO 18007KT 5SM HZ CLR 31/12 A3013 RMK AO2
KFNL 181856Z AUTO 14005KT 2 1/2SM HZ CLR 31/13 A3013 RMK AO2 VIS 1V5 SLP135 T03110128
KFNL 181656Z AUTO VRB04KT 9SM CLR 26/16 A3017 RMK AO2 SLP155 T02610156
KFNL 181556Z AUTO 19007KT 10SM CLR 23/14 A3018 RMK AO2 SLP159 T02330144
KFNL 181456Z AUTO 00000KT 10SM CLR 21/14 A3019 RMK AO2 SLP164 T02110144 50008
KFNL 181356Z AUTO 16004KT 10SM CLR 19/15 A3019 RMK AO2 SLP162 T01940150
KFNL 181256Z AUTO 15006KT 10SM CLR 18/14 A3019 RMK AO2 SLP158 T01780139
KFNL 181156Z AUTO 02005KT 10SM CLR 18/13 A3016 RMK AO2 SLP151 T01780133 10194 20161 53003
KFNL 180956Z AUTO 02006KT 10SM CLR 17/15 A3015 RMK AO2 SLP147 T01720150
KFNL 180856Z AUTO 02008KT 10SM CLR 18/17 A3015 RMK AO2 SLP147 T01780167 53001
KFNL 180756Z AUTO 35009KT 10SM CLR 18/16 A3015 RMK AO2 SLP148 T01780161
KFNL 180656Z AUTO 35004KT 10SM CLR 18/16 A3014 RMK AO2 SLP144 T01780161 403000167
KFNL 180556Z AUTO 07003KT 10SM CLR 19/16 A3015 RMK AO2 SLP147 T01940161 10289 20189 58004
KFNL 180456Z AUTO 00000KT 10SM CLR 19/16 A3016 RMK AO2 SLP154 T01940161
KFNL 180356Z AUTO 11012KT 10SM CLR 21/16 A3016 RMK AO2 SLP154 T02060156
KFNL 180256Z AUTO 10010KT 10SM FEW055 22/15 A3016 RMK AO2 SLP155 T02220150 55002
KFNL 180156Z AUTO 07005KT 10SM CLR 26/15 A3015 RMK AO2 SLP149 T02610150
KFNL 180056Z AUTO 09007KT 10SM CLR 29/16 A3016 RMK AO2 WSHFT 2343 SLP149 T02890161
KFNL 180003Z AUTO 10013KT 10SM BKN120 28/16 A3017 RMK AO2 WSHFT 2343 LTG DSNT NE
KFNL 172356Z AUTO 10013KT 10SM BKN110 27/16 A3017 RMK AO2 LTG DSNT NE TSB21E36 SLP155 60000 T02720161 10300 20239 58001
KFNL 172342Z AUTO 05009KT 10SM BKN120 27/15 A3018 RMK AO2 TSB21E36
KFNL 172327Z AUTO 02013KT 10SM VCTS SCT120 28/16 A3018 RMK AO2 LTG DSNT N TSB21
KFNL 172256Z AUTO 07007KT 6SM HZ FEW110 30/16 A3017 RMK AO2 SLP151 T03000156
KFNL 172156Z AUTO 01009G14KT 10SM FEW040 SCT120 27/17 A3018 RMK AO2 LTG DSNT SW RAB27E47 SLP157 P0000 T02720167
KFNL 172056Z AUTO 17008KT 10SM SCT110 28/16 A3017 RMK AO2 LTG DSNT W-N RAB18E42 SLP155 P0000 60000 T02780156 58021
KFNL 171956Z AUTO 23008KT 10SM CLR 26/16 A3023 RMK AO2 LTG DSNT SW AND W SLP176 T02610156
KFNL 171856Z AUTO 18006KT 10SM CLR 27/15 A3023 RMK AO2 SLP176 T02670150
KFNL 171756Z AUTO VRB04KT 10SM CLR 24/15 A3025 RMK AO2 SLP181 T02440150 10250 20167 56011
KFNL 171656Z AUTO 25006KT 10SM CLR 24/15 A3026 RMK AO2 SLP184 T02390150
KFNL 171556Z AUTO 23004KT 10SM CLR 22/15 A3027 RMK AO2 SLP189 T02170150
KFNL 171456Z AUTO 27006KT 10SM CLR 20/14 A3028 RMK AO2 SLP195 T02000139 50001
KFNL 171356Z AUTO 00000KT 10SM OVC031 18/14 A3029 RMK AO2 SLP199 T01830139
KFNL 171256Z AUTO 00000KT 10SM OVC031 17/14 A3028 RMK AO2 SLP195 T01720139
KFNL 171156Z AUTO 12004KT 10SM OVC031 17/14 A3028 RMK AO2 SLP192 70007 T01720139 10200 20172 53004
KFNL 171056Z AUTO 07006KT 10SM BKN033 17/14 A3027 RMK AO2 SLP190 T01720139
KFNL 171041Z AUTO 04005KT 10SM SCT025 SCT120 18/14 A3027 RMK AO2
KFNL 170956Z AUTO 05004KT 9SM OVC020 18/14 A3027 RMK AO2 SLP186 T01780139
KFNL 170856Z AUTO 01005KT 10SM BKN022 18/14 A3027 RMK AO2 SLP189 T01780139 51002
KFNL 170852Z AUTO 36005KT 10SM BKN022 17/14 A3026 RMK AO2
KFNL 170833Z AUTO 36007KT 10SM SCT020 17/14 A3026 RMK AO2